createdAt,value
2016-07-08T00:00:54.237Z,0
2016-07-08T00:01:54.267Z,0
2016-07-08T00:02:54.296Z,0
2016-07-08T00:03:54.304Z,0
2016-07-08T00:04:54.329Z,0
2016-07-08T00:05:54.338Z,0
2016-07-08T00:06:54.363Z,0
2016-07-08T00:07:54.389Z,0
2016-07-08T00:08:54.417Z,0
2016-07-08T00:09:54.407Z,0
2016-07-08T00:10:54.446Z,0
2016-07-08T00:11:54.474Z,0
2016-07-08T00:12:54.482Z,0
2016-07-08T00:13:54.509Z,0
2016-07-08T00:14:54.518Z,0
2016-07-08T00:15:54.541Z,0
2016-07-08T00:16:54.561Z,0
2016-07-08T00:17:54.584Z,0
2016-07-08T00:18:54.605Z,0
2016-07-08T00:19:54.629Z,0
2016-07-08T00:20:54.641Z,0
2016-07-08T00:21:54.656Z,0
2016-07-08T00:22:54.692Z,0
2016-07-08T00:23:54.707Z,0
2016-07-08T00:24:54.723Z,0
2016-07-08T00:25:55.385Z,0
2016-07-08T00:26:54.765Z,0
2016-07-08T00:27:54.792Z,0
2016-07-08T00:28:54.798Z,0
2016-07-08T00:29:54.823Z,0
2016-07-08T00:30:54.847Z,0
2016-07-08T00:31:54.863Z,0
2016-07-08T00:32:54.882Z,0
2016-07-08T00:33:54.909Z,0
2016-07-08T00:34:54.914Z,0
2016-07-08T00:35:54.951Z,0
2016-07-08T00:36:54.968Z,0
2016-07-08T00:37:54.980Z,0
2016-07-08T00:38:55.011Z,0
2016-07-08T00:39:55.019Z,0
2016-07-08T00:40:55.036Z,0
2016-07-08T00:41:55.067Z,0
2016-07-08T00:42:55.088Z,0
2016-07-08T00:43:55.108Z,0
2016-07-08T00:44:55.125Z,0
2016-07-08T00:45:55.147Z,0
2016-07-08T00:46:55.168Z,0
2016-07-08T00:47:55.196Z,0
2016-07-08T00:48:55.209Z,0
2016-07-08T00:49:55.220Z,0
2016-07-08T00:50:55.243Z,0
2016-07-08T00:51:55.271Z,0
2016-07-08T00:52:55.286Z,0
2016-07-08T00:53:55.305Z,0
2016-07-08T00:54:55.327Z,0
2016-07-08T00:55:55.351Z,0
2016-07-08T00:56:55.370Z,0
2016-07-08T00:57:55.371Z,0
2016-07-08T00:58:55.407Z,0
2016-07-08T00:59:55.421Z,0
2016-07-08T01:00:56.787Z,0
2016-07-08T01:01:55.448Z,0
2016-07-08T01:02:55.494Z,0
2016-07-08T01:03:55.500Z,0
2016-07-08T01:04:55.534Z,0
2016-07-08T01:05:55.537Z,0
2016-07-08T01:06:55.554Z,0
2016-07-08T01:07:55.635Z,0
2016-07-08T01:08:55.600Z,0
2016-07-08T01:09:55.644Z,0
2016-07-08T01:10:55.645Z,0
2016-07-08T01:11:55.660Z,0
2016-07-08T01:12:55.739Z,0
2016-07-08T01:13:55.728Z,0
2016-07-08T01:14:55.768Z,0
2016-07-08T01:15:55.769Z,0
2016-07-08T01:16:55.825Z,0
2016-07-08T01:17:55.772Z,0
2016-07-08T01:18:55.799Z,0
2016-07-08T01:19:55.815Z,0
2016-07-08T01:20:55.835Z,0
2016-07-08T01:21:55.870Z,0
2016-07-08T01:22:55.878Z,0
2016-07-08T01:23:55.945Z,0
2016-07-08T01:24:55.941Z,0
2016-07-08T01:25:55.939Z,0
2016-07-08T01:26:55.951Z,0
2016-07-08T01:27:55.981Z,0
2016-07-08T01:28:56.000Z,0
2016-07-08T01:29:56.016Z,0
2016-07-08T01:30:56.037Z,0
2016-07-08T01:31:56.055Z,0
2016-07-08T01:32:56.075Z,0
2016-07-08T01:33:56.094Z,0
2016-07-08T01:34:56.111Z,0
2016-07-08T01:35:56.143Z,0
2016-07-08T01:36:56.152Z,0
2016-07-08T01:37:56.183Z,0
2016-07-08T01:38:56.191Z,0
2016-07-08T01:39:56.222Z,0
2016-07-08T01:40:56.227Z,0
2016-07-08T01:41:56.255Z,0
2016-07-08T01:42:56.274Z,0
2016-07-08T01:43:56.287Z,0
2016-07-08T01:44:56.315Z,0
2016-07-08T01:45:56.326Z,0
2016-07-08T01:46:56.354Z,0
2016-07-08T01:47:56.374Z,0
2016-07-08T01:48:56.398Z,0
2016-07-08T01:49:56.403Z,0
2016-07-08T01:50:56.442Z,0
2016-07-08T01:51:56.456Z,0
2016-07-08T01:52:56.477Z,0
2016-07-08T01:53:56.480Z,0
2016-07-08T01:54:56.502Z,0
2016-07-08T01:55:56.527Z,0
2016-07-08T01:56:56.546Z,0
2016-07-08T01:57:56.568Z,0
2016-07-08T01:58:56.587Z,0
2016-07-08T01:59:56.633Z,0
2016-07-08T02:00:56.634Z,0
2016-07-08T02:01:56.643Z,0
2016-07-08T02:02:56.674Z,0
2016-07-08T02:03:56.676Z,0
2016-07-08T02:04:56.705Z,0
2016-07-08T02:05:56.722Z,0
2016-07-08T02:06:56.757Z,0
2016-07-08T02:07:56.767Z,0
2016-07-08T02:08:56.785Z,0
2016-07-08T02:09:56.815Z,0
2016-07-08T02:10:56.817Z,0
2016-07-08T02:11:56.843Z,0
2016-07-08T02:12:56.869Z,0
2016-07-08T02:13:56.892Z,0
2016-07-08T02:14:56.906Z,0
2016-07-08T02:15:56.920Z,0
2016-07-08T02:16:56.943Z,0
2016-07-08T02:17:56.964Z,0
2016-07-08T02:18:56.980Z,0
2016-07-08T02:19:56.994Z,0
2016-07-08T02:20:57.030Z,0
2016-07-08T02:21:57.043Z,0
2016-07-08T02:22:57.053Z,0
2016-07-08T02:23:57.104Z,0
2016-07-08T02:24:57.103Z,0
2016-07-08T02:25:57.124Z,0
2016-07-08T02:26:57.132Z,0
2016-07-08T02:27:57.165Z,0
2016-07-08T02:28:57.170Z,0
2016-07-08T02:29:57.200Z,0
2016-07-08T02:30:57.210Z,0
2016-07-08T02:31:57.252Z,0
2016-07-08T02:32:57.265Z,0
2016-07-08T02:33:57.273Z,0
2016-07-08T02:34:57.294Z,0
2016-07-08T02:35:57.322Z,0
2016-07-08T02:36:57.336Z,0
2016-07-08T02:37:57.356Z,0
2016-07-08T02:38:57.375Z,0
2016-07-08T02:39:57.409Z,0
2016-07-08T02:40:57.415Z,0
2016-07-08T02:41:57.439Z,0
2016-07-08T02:42:57.469Z,0
2016-07-08T02:43:57.482Z,0
2016-07-08T02:44:57.490Z,0
2016-07-08T02:45:57.566Z,0
2016-07-08T02:46:57.532Z,0
2016-07-08T02:47:57.552Z,0
2016-07-08T02:48:57.602Z,0
2016-07-08T02:49:57.614Z,0
2016-07-08T02:50:57.613Z,0
2016-07-08T02:51:57.638Z,0
2016-07-08T02:52:57.696Z,0
2016-07-08T02:53:57.730Z,0
2016-07-08T02:54:57.709Z,0
2016-07-08T02:55:57.715Z,0
2016-07-08T02:56:57.742Z,0
2016-07-08T02:57:57.758Z,0
2016-07-08T02:58:57.771Z,0
2016-07-08T02:59:57.789Z,0
2016-07-08T03:00:57.829Z,0
2016-07-08T03:01:57.827Z,0
2016-07-08T03:02:57.890Z,0
2016-07-08T03:03:57.882Z,0
2016-07-08T03:04:57.887Z,0
2016-07-08T03:05:57.913Z,0
2016-07-08T03:06:57.941Z,0
2016-07-08T03:07:57.952Z,0
2016-07-08T03:08:57.970Z,0
2016-07-08T03:09:57.991Z,0
2016-07-08T03:10:58.000Z,0
2016-07-08T03:11:58.032Z,0
2016-07-08T03:12:58.109Z,0
2016-07-08T03:13:58.059Z,0
2016-07-08T03:14:58.090Z,0
2016-07-08T03:15:58.121Z,0
2016-07-08T03:16:58.128Z,0
2016-07-08T03:17:58.158Z,0
2016-07-08T03:18:58.170Z,0
2016-07-08T03:19:58.179Z,0
2016-07-08T03:20:58.204Z,0
2016-07-08T03:21:58.236Z,0
2016-07-08T03:22:58.255Z,0
2016-07-08T03:23:58.270Z,0
2016-07-08T03:24:58.290Z,0
2016-07-08T03:25:58.338Z,0
2016-07-08T03:26:58.322Z,0
2016-07-08T03:27:58.399Z,0
2016-07-08T03:28:58.359Z,0
2016-07-08T03:29:58.388Z,0
2016-07-08T03:30:58.410Z,0
2016-07-08T03:31:58.412Z,0
2016-07-08T03:32:58.438Z,0
2016-07-08T03:33:58.464Z,0
2016-07-08T03:34:58.482Z,0
2016-07-08T03:35:58.496Z,0
2016-07-08T03:36:58.528Z,0
2016-07-08T03:37:58.543Z,5
2016-07-08T03:38:58.558Z,5
2016-07-08T03:39:58.587Z,5
2016-07-08T03:40:58.592Z,5
2016-07-08T03:41:58.626Z,5
2016-07-08T03:42:58.638Z,5
2016-07-08T03:43:58.662Z,5
2016-07-08T03:44:58.686Z,5
2016-07-08T03:45:58.705Z,5
2016-07-08T03:46:58.711Z,5
2016-07-08T03:47:58.747Z,5
2016-07-08T03:48:58.757Z,10
2016-07-08T03:49:58.768Z,10
2016-07-08T03:50:58.805Z,10
2016-07-08T03:51:58.808Z,10
2016-07-08T03:52:58.832Z,10
2016-07-08T03:53:58.855Z,10
2016-07-08T03:54:58.880Z,10
2016-07-08T03:55:58.892Z,15
2016-07-08T03:56:58.912Z,15
2016-07-08T03:57:58.934Z,15
2016-07-08T03:58:58.961Z,15
2016-07-08T03:59:58.979Z,15
2016-07-08T04:00:58.985Z,15
2016-07-08T04:01:59.023Z,20
2016-07-08T04:02:59.037Z,20
2016-07-08T04:03:59.041Z,20
2016-07-08T04:04:59.090Z,20
2016-07-08T04:05:59.088Z,20
2016-07-08T04:06:59.124Z,20
2016-07-08T04:07:59.145Z,20
2016-07-08T04:08:59.146Z,25
2016-07-08T04:09:59.172Z,25
2016-07-08T04:10:59.185Z,25
2016-07-08T04:11:59.207Z,25
2016-07-08T04:12:59.227Z,25
2016-07-08T04:13:59.243Z,30
2016-07-08T04:14:59.271Z,30
2016-07-08T04:15:59.304Z,30
2016-07-08T04:16:59.305Z,30
2016-07-08T04:17:59.336Z,30
2016-07-08T04:18:59.354Z,35
2016-07-08T04:19:59.364Z,35
2016-07-08T04:20:59.391Z,35
2016-07-08T04:21:59.403Z,35
2016-07-08T04:22:59.422Z,35
2016-07-08T04:23:59.455Z,35
2016-07-08T04:24:59.472Z,40
2016-07-08T04:25:59.488Z,40
2016-07-08T04:26:59.517Z,40
2016-07-08T04:27:59.524Z,40
2016-07-08T04:28:59.552Z,40
2016-07-08T04:29:59.577Z,35
2016-07-08T04:30:59.582Z,35
2016-07-08T04:31:59.611Z,35
2016-07-08T04:32:59.623Z,35
2016-07-08T04:33:59.657Z,35
2016-07-08T04:34:59.677Z,35
2016-07-08T04:35:59.782Z,35
2016-07-08T04:36:59.703Z,35
2016-07-08T04:37:59.781Z,35
2016-07-08T04:38:59.760Z,35
2016-07-08T04:39:59.812Z,40
2016-07-08T04:40:59.810Z,40
2016-07-08T04:41:59.847Z,40
2016-07-08T04:42:59.829Z,45
2016-07-08T04:43:59.883Z,45
2016-07-08T04:44:59.868Z,45
2016-07-08T04:45:59.912Z,50
2016-07-08T04:46:59.917Z,50
2016-07-08T04:47:59.937Z,50
2016-07-08T04:48:59.962Z,50
2016-07-08T04:49:59.974Z,50
2016-07-08T04:50:59.981Z,55
2016-07-08T04:52:00.029Z,55
2016-07-08T04:53:00.021Z,55
2016-07-08T04:54:00.053Z,60
2016-07-08T04:55:00.079Z,60
2016-07-08T04:56:00.091Z,65
2016-07-08T04:57:00.111Z,70
2016-07-08T04:58:00.138Z,70
2016-07-08T04:59:00.149Z,70
2016-07-08T05:00:00.171Z,70
2016-07-08T05:02:00.232Z,80
2016-07-08T05:03:00.214Z,80
2016-07-08T05:04:00.237Z,85
2016-07-08T05:05:00.246Z,90
2016-07-08T05:06:00.264Z,95
2016-07-08T05:07:00.291Z,105
2016-07-08T05:08:00.315Z,110
2016-07-08T05:09:00.343Z,120
2016-07-08T05:10:00.350Z,140
2016-07-08T05:11:00.372Z,140
2016-07-08T05:12:00.392Z,155
2016-07-08T05:13:00.407Z,155
2016-07-08T05:14:00.429Z,180
2016-07-08T05:15:00.449Z,180
2016-07-08T05:16:00.464Z,185
2016-07-08T05:17:00.537Z,185
2016-07-08T05:18:00.512Z,190
2016-07-08T05:19:00.536Z,195
2016-07-08T05:20:00.549Z,195
2016-07-08T05:21:00.578Z,195
2016-07-08T05:22:00.600Z,185
2016-07-08T05:23:00.613Z,190
2016-07-08T05:24:00.640Z,185
2016-07-08T05:25:00.668Z,185
2016-07-08T05:26:00.690Z,190
2016-07-08T05:27:00.702Z,190
2016-07-08T05:28:00.724Z,180
2016-07-08T05:29:00.748Z,175
2016-07-08T05:30:00.761Z,170
2016-07-08T05:31:00.790Z,165
2016-07-08T05:32:00.814Z,170
2016-07-08T05:33:00.842Z,185
2016-07-08T05:34:00.841Z,155
2016-07-08T05:35:00.882Z,145
2016-07-08T05:36:00.903Z,140
2016-07-08T05:37:00.914Z,140
2016-07-08T05:38:00.943Z,135
2016-07-08T05:39:00.965Z,135
2016-07-08T05:40:00.986Z,140
2016-07-08T05:41:01.009Z,140
2016-07-08T05:42:01.039Z,140
2016-07-08T05:43:01.047Z,140
2016-07-08T05:44:01.084Z,140
2016-07-08T05:45:01.094Z,145
2016-07-08T05:46:01.156Z,145
2016-07-08T05:47:01.143Z,145
2016-07-08T05:48:01.160Z,145
2016-07-08T05:49:01.181Z,150
2016-07-08T05:50:01.205Z,155
2016-07-08T05:51:01.242Z,150
2016-07-08T05:52:01.257Z,150
2016-07-08T05:53:01.271Z,155
2016-07-08T05:54:01.294Z,155
2016-07-08T05:55:01.308Z,155
2016-07-08T05:56:01.341Z,150
2016-07-08T05:57:01.362Z,155
2016-07-08T05:58:01.391Z,150
2016-07-08T05:59:01.395Z,150
2016-07-08T06:00:01.429Z,150
2016-07-08T06:01:01.441Z,150
2016-07-08T06:02:01.474Z,150
2016-07-08T06:03:01.506Z,155
2016-07-08T06:04:01.516Z,150
2016-07-08T06:05:01.537Z,145
2016-07-08T06:06:01.562Z,145
2016-07-08T06:07:01.578Z,140
2016-07-08T06:08:01.597Z,140
2016-07-08T06:09:01.630Z,140
2016-07-08T06:10:01.652Z,135
2016-07-08T06:11:01.674Z,135
2016-07-08T06:12:01.692Z,135
2016-07-08T06:13:01.711Z,135
2016-07-08T06:14:01.738Z,135
2016-07-08T06:15:01.805Z,135
2016-07-08T06:16:01.835Z,135
2016-07-08T06:17:01.844Z,140
2016-07-08T06:18:01.861Z,140
2016-07-08T06:19:01.899Z,140
2016-07-08T06:20:01.930Z,135
2016-07-08T06:21:01.934Z,135
2016-07-08T06:22:01.938Z,130
2016-07-08T06:23:01.939Z,135
2016-07-08T06:24:01.993Z,130
2016-07-08T06:25:02.019Z,130
2016-07-08T06:26:02.082Z,130
2016-07-08T06:27:02.082Z,140
2016-07-08T06:28:02.144Z,135
2016-07-08T06:29:02.114Z,130
2016-07-08T06:30:02.203Z,130
2016-07-08T06:31:02.128Z,130
2016-07-08T06:32:02.208Z,130
2016-07-08T06:33:02.153Z,130
2016-07-08T06:34:02.268Z,130
2016-07-08T06:35:02.249Z,130
2016-07-08T06:36:02.299Z,130
2016-07-08T06:37:02.307Z,130
2016-07-08T06:38:02.329Z,135
2016-07-08T06:39:02.332Z,130
2016-07-08T06:40:02.347Z,130
2016-07-08T06:41:02.361Z,130
2016-07-08T06:42:02.373Z,135
2016-07-08T06:43:02.375Z,135
2016-07-08T06:44:02.463Z,135
2016-07-08T06:45:02.471Z,135
2016-07-08T06:46:02.495Z,135
2016-07-08T06:47:02.534Z,140
2016-07-08T06:48:02.551Z,140
2016-07-08T06:49:02.561Z,145
2016-07-08T06:50:02.558Z,145
2016-07-08T06:51:02.561Z,145
2016-07-08T06:52:02.590Z,150
2016-07-08T06:53:02.620Z,150
2016-07-08T06:54:02.675Z,155
2016-07-08T06:55:02.703Z,155
2016-07-08T06:56:02.705Z,160
2016-07-08T06:57:02.754Z,165
2016-07-08T06:58:02.773Z,165
2016-07-08T06:59:02.772Z,165
2016-07-08T07:00:02.764Z,165
2016-07-08T07:01:02.794Z,165
2016-07-08T07:02:02.798Z,165
2016-07-08T07:03:02.835Z,165
2016-07-08T07:04:02.860Z,175
2016-07-08T07:05:02.866Z,170
2016-07-08T07:06:02.907Z,175
2016-07-08T07:07:02.919Z,180
2016-07-08T07:08:02.948Z,180
2016-07-08T07:09:02.961Z,185
2016-07-08T07:10:02.992Z,180
2016-07-08T07:11:02.999Z,180
2016-07-08T07:12:03.028Z,175
2016-07-08T07:13:03.072Z,175
2016-07-08T07:14:03.075Z,175
2016-07-08T07:15:03.103Z,175
2016-07-08T07:16:03.121Z,175
2016-07-08T07:17:03.139Z,175
2016-07-08T07:18:03.171Z,175
2016-07-08T07:19:03.204Z,175
2016-07-08T07:20:03.224Z,180
2016-07-08T07:21:03.242Z,185
2016-07-08T07:22:03.259Z,185
2016-07-08T07:23:03.267Z,185
2016-07-08T07:24:03.321Z,190
2016-07-08T07:25:03.346Z,195
2016-07-08T07:26:03.338Z,195
2016-07-08T07:27:03.378Z,200
2016-07-08T07:28:03.393Z,200
2016-07-08T07:29:03.433Z,205
2016-07-08T07:30:03.452Z,210
2016-07-08T07:31:03.462Z,210
2016-07-08T07:32:03.492Z,210
2016-07-08T07:33:03.513Z,210
2016-07-08T07:34:03.541Z,215
2016-07-08T07:35:03.567Z,215
2016-07-08T07:36:03.579Z,215
2016-07-08T07:37:03.597Z,220
2016-07-08T07:38:03.625Z,220
2016-07-08T07:39:03.650Z,225
2016-07-08T07:40:03.679Z,225
2016-07-08T07:41:03.692Z,220
2016-07-08T07:42:03.723Z,220
2016-07-08T07:43:03.745Z,215
2016-07-08T07:44:03.755Z,210
2016-07-08T07:45:03.791Z,205
2016-07-08T07:46:03.816Z,195
2016-07-08T07:47:03.846Z,190
2016-07-08T07:48:03.854Z,195
2016-07-08T07:49:03.881Z,195
2016-07-08T07:50:03.912Z,200
2016-07-08T07:51:03.926Z,195
2016-07-08T07:52:03.949Z,195
2016-07-08T07:53:03.986Z,195
2016-07-08T07:54:04.001Z,190
2016-07-08T07:55:04.018Z,190
2016-07-08T07:56:04.053Z,190
2016-07-08T07:57:04.074Z,185
2016-07-08T07:58:04.093Z,185
2016-07-08T07:59:04.112Z,185
2016-07-08T08:00:04.209Z,185
2016-07-08T08:01:04.173Z,185
2016-07-08T08:02:04.188Z,185
2016-07-08T08:03:04.220Z,185
2016-07-08T08:04:04.257Z,190
2016-07-08T08:05:04.260Z,190
2016-07-08T08:06:04.273Z,190
2016-07-08T08:07:04.308Z,190
2016-07-08T08:08:04.330Z,195
2016-07-08T08:09:04.349Z,195
2016-07-08T08:10:04.434Z,195
2016-07-08T08:11:04.409Z,195
2016-07-08T08:12:04.496Z,200
2016-07-08T08:13:04.448Z,205
2016-07-08T08:14:04.528Z,205
2016-07-08T08:15:04.490Z,205
2016-07-08T08:16:04.555Z,205
2016-07-08T08:17:04.547Z,205
2016-07-08T08:18:04.617Z,210
2016-07-08T08:19:04.593Z,210
2016-07-08T08:20:04.617Z,210
2016-07-08T08:21:04.636Z,210
2016-07-08T08:22:04.681Z,215
2016-07-08T08:23:04.682Z,215
2016-07-08T08:24:04.718Z,220
2016-07-08T08:25:04.725Z,225
2016-07-08T08:26:04.745Z,225
2016-07-08T08:27:04.783Z,230
2016-07-08T08:28:04.797Z,235
2016-07-08T08:29:04.828Z,240
2016-07-08T08:30:04.859Z,245
2016-07-08T08:31:04.878Z,250
2016-07-08T08:32:04.897Z,255
2016-07-08T08:33:04.921Z,260
2016-07-08T08:34:04.945Z,265
2016-07-08T08:35:04.967Z,260
2016-07-08T08:36:05.011Z,265
2016-07-08T08:37:05.012Z,270
2016-07-08T08:38:05.035Z,265
2016-07-08T08:39:05.066Z,260
2016-07-08T08:40:05.087Z,250
2016-07-08T08:41:05.115Z,255
2016-07-08T08:42:05.136Z,260
2016-07-08T08:43:05.152Z,260
2016-07-08T08:44:05.194Z,255
2016-07-08T08:45:05.204Z,285
2016-07-08T08:46:05.289Z,295
2016-07-08T08:47:05.248Z,290
2016-07-08T08:48:05.286Z,275
2016-07-08T08:49:05.306Z,260
2016-07-08T08:50:05.329Z,265
2016-07-08T08:51:05.357Z,255
2016-07-08T08:52:05.363Z,255
2016-07-08T08:53:05.404Z,260
2016-07-08T08:54:05.416Z,255
2016-07-08T08:55:05.457Z,265
2016-07-08T08:56:05.476Z,265
2016-07-08T08:57:05.494Z,280
2016-07-08T08:58:05.533Z,280
2016-07-08T08:59:05.545Z,280
2016-07-08T09:00:05.569Z,280
2016-07-08T09:01:05.605Z,280
2016-07-08T09:02:05.611Z,280
2016-07-08T09:03:05.644Z,290
2016-07-08T09:04:05.662Z,290
2016-07-08T09:05:05.701Z,280
2016-07-08T09:06:05.714Z,260
2016-07-08T09:07:05.752Z,260
2016-07-08T09:08:05.768Z,260
2016-07-08T09:09:05.802Z,265
2016-07-08T09:10:05.814Z,265
2016-07-08T09:11:05.838Z,265
2016-07-08T09:12:05.888Z,270
2016-07-08T09:13:05.886Z,270
2016-07-08T09:14:05.919Z,275
2016-07-08T09:15:05.943Z,285
2016-07-08T09:16:05.967Z,295
2016-07-08T09:17:05.997Z,300
2016-07-08T09:18:06.013Z,320
2016-07-08T09:19:06.043Z,315
2016-07-08T09:20:06.149Z,325
2016-07-08T09:21:06.097Z,295
2016-07-08T09:22:06.129Z,300
2016-07-08T09:23:06.141Z,300
2016-07-08T09:24:06.166Z,305
2016-07-08T09:25:06.184Z,305
2016-07-08T09:26:06.221Z,320
2016-07-08T09:27:06.234Z,335
2016-07-08T09:28:06.278Z,330
2016-07-08T09:29:06.302Z,310
2016-07-08T09:30:06.312Z,300
2016-07-08T09:31:06.332Z,295
2016-07-08T09:32:06.371Z,300
2016-07-08T09:33:06.441Z,245
2016-07-08T09:34:06.415Z,245
2016-07-08T09:35:06.436Z,240
2016-07-08T09:36:06.468Z,235
2016-07-08T09:37:06.501Z,205
2016-07-08T09:38:06.525Z,185
2016-07-08T09:39:06.533Z,170
2016-07-08T09:40:06.562Z,165
2016-07-08T09:41:06.600Z,155
2016-07-08T09:42:06.628Z,150
2016-07-08T09:43:06.629Z,145
2016-07-08T09:44:06.666Z,145
2016-07-08T09:45:06.683Z,150
2016-07-08T09:46:06.759Z,150
2016-07-08T09:47:06.748Z,155
2016-07-08T09:48:06.843Z,165
2016-07-08T09:49:06.794Z,170
2016-07-08T09:50:06.839Z,175
2016-07-08T09:51:06.835Z,180
2016-07-08T09:52:06.917Z,185
2016-07-08T09:53:06.877Z,180
2016-07-08T09:54:06.928Z,180
2016-07-08T09:55:06.925Z,185
2016-07-08T09:56:06.954Z,200
2016-07-08T09:57:06.989Z,200
2016-07-08T09:58:07.010Z,215
2016-07-08T09:59:07.031Z,225
2016-07-08T10:00:07.056Z,240
2016-07-08T10:01:07.070Z,245
2016-07-08T10:02:07.094Z,250
2016-07-08T10:03:07.128Z,250
2016-07-08T10:04:07.143Z,255
2016-07-08T10:05:07.159Z,255
2016-07-08T10:06:07.213Z,260
2016-07-08T10:07:07.210Z,260
2016-07-08T10:08:07.242Z,260
2016-07-08T10:09:07.264Z,270
2016-07-08T10:10:07.300Z,270
2016-07-08T10:11:07.310Z,270
2016-07-08T10:12:07.340Z,275
2016-07-08T10:13:07.361Z,280
2016-07-08T10:14:07.402Z,280
2016-07-08T10:15:07.416Z,285
2016-07-08T10:16:07.484Z,270
2016-07-08T10:17:07.469Z,270
2016-07-08T10:18:07.484Z,265
2016-07-08T10:19:07.508Z,270
2016-07-08T10:20:07.545Z,270
2016-07-08T10:21:07.570Z,270
2016-07-08T10:22:07.589Z,275
2016-07-08T10:23:07.603Z,275
2016-07-08T10:24:07.634Z,265
2016-07-08T10:25:07.669Z,260
2016-07-08T10:26:07.679Z,265
2016-07-08T10:27:07.713Z,265
2016-07-08T10:28:07.726Z,270
2016-07-08T10:29:07.759Z,275
2016-07-08T10:30:07.795Z,275
2016-07-08T10:31:07.808Z,280
2016-07-08T10:32:07.832Z,285
2016-07-08T10:33:07.855Z,290
2016-07-08T10:34:07.878Z,300
2016-07-08T10:35:07.894Z,305
2016-07-08T10:36:07.940Z,315
2016-07-08T10:37:07.970Z,315
2016-07-08T10:38:07.981Z,305
2016-07-08T10:39:08.003Z,300
2016-07-08T10:40:08.303Z,300
2016-07-08T10:41:08.068Z,295
2016-07-08T10:42:08.081Z,295
2016-07-08T10:43:08.109Z,295
2016-07-08T10:44:08.127Z,295
2016-07-08T10:45:08.169Z,290
2016-07-08T10:46:08.186Z,285
2016-07-08T10:47:08.203Z,280
2016-07-08T10:48:08.238Z,275
2016-07-08T10:49:08.292Z,270
2016-07-08T10:50:08.274Z,265
2016-07-08T10:51:08.310Z,265
2016-07-08T10:52:08.336Z,250
2016-07-08T10:53:08.355Z,245
2016-07-08T10:54:08.381Z,235
2016-07-08T10:55:08.413Z,225
2016-07-08T10:56:08.428Z,220
2016-07-08T10:57:08.450Z,215
2016-07-08T10:58:08.496Z,205
2016-07-08T10:59:08.500Z,205
2016-07-08T11:00:08.532Z,200
2016-07-08T11:01:08.541Z,195
2016-07-08T11:02:08.584Z,190
2016-07-08T11:03:08.607Z,190
2016-07-08T11:04:08.630Z,185
2016-07-08T11:05:08.719Z,180
2016-07-08T11:06:08.674Z,180
2016-07-08T11:07:08.703Z,175
2016-07-08T11:08:08.738Z,175
2016-07-08T11:09:08.753Z,175
2016-07-08T11:10:08.787Z,175
2016-07-08T11:11:08.797Z,175
2016-07-08T11:12:08.829Z,180
2016-07-08T11:13:09.941Z,165
2016-07-08T11:15:37.062Z,160
2016-07-08T11:16:35.831Z,160
2016-07-08T11:16:51.490Z,160
2016-07-08T11:17:51.513Z,160
2016-07-08T11:18:51.526Z,160
2016-07-08T11:19:51.558Z,160
2016-07-08T11:20:51.582Z,165
2016-07-08T11:21:51.597Z,165
2016-07-08T11:22:51.628Z,160
2016-07-08T11:23:51.647Z,155
2016-07-08T11:24:51.678Z,155
2016-07-08T11:25:51.707Z,155
2016-07-08T11:26:51.724Z,150
2016-07-08T11:27:51.743Z,150
2016-07-08T11:28:51.763Z,150
2016-07-08T11:29:51.808Z,155
2016-07-08T11:30:51.812Z,150
2016-07-08T11:31:51.845Z,150
2016-07-08T11:32:51.861Z,150
2016-07-08T11:33:51.886Z,145
2016-07-08T11:34:51.910Z,140
2016-07-08T11:35:51.940Z,135
2016-07-08T11:36:51.969Z,130
2016-07-08T11:37:51.983Z,125
2016-07-08T11:38:52.003Z,125
2016-07-08T11:39:52.036Z,120
2016-07-08T11:40:52.063Z,115
2016-07-08T11:41:52.096Z,115
2016-07-08T11:42:52.101Z,115
2016-07-08T11:43:52.138Z,120
2016-07-08T11:44:52.155Z,120
2016-07-08T11:45:52.169Z,125
2016-07-08T11:46:52.224Z,125
2016-07-08T11:47:52.235Z,130
2016-07-08T11:48:52.251Z,135
2016-07-08T11:49:52.263Z,140
2016-07-08T11:50:52.303Z,145
2016-07-08T11:51:52.326Z,150
2016-07-08T11:52:52.349Z,155
2016-07-08T11:53:52.374Z,160
2016-07-08T11:54:52.385Z,160
2016-07-08T11:55:52.416Z,160
2016-07-08T11:56:52.458Z,165
2016-07-08T11:57:52.486Z,170
2016-07-08T11:58:52.491Z,170
2016-07-08T11:59:52.512Z,170
2016-07-08T12:00:52.544Z,170
2016-07-08T12:01:52.566Z,175
2016-07-08T12:02:52.582Z,180
2016-07-08T12:03:52.614Z,180
2016-07-08T12:04:52.623Z,185
2016-07-08T12:05:52.655Z,190
2016-07-08T12:06:52.681Z,190
2016-07-08T12:07:52.705Z,190
2016-07-08T12:08:52.718Z,185
2016-07-08T12:09:52.768Z,180
2016-07-08T12:10:52.777Z,175
2016-07-08T12:11:52.790Z,180
2016-07-08T12:12:52.825Z,180
2016-07-08T12:13:52.849Z,180
2016-07-08T12:14:52.871Z,175
2016-07-08T12:15:52.888Z,175
2016-07-08T12:16:52.907Z,165
2016-07-08T12:17:52.944Z,165
2016-07-08T12:18:52.967Z,165
2016-07-08T12:19:52.989Z,165
2016-07-08T12:20:53.022Z,165
2016-07-08T12:21:53.040Z,165
2016-07-08T12:22:53.059Z,175
2016-07-08T12:23:53.092Z,185
2016-07-08T12:24:53.111Z,185
2016-07-08T12:25:53.130Z,190
2016-07-08T12:26:53.163Z,185
2016-07-08T12:27:53.192Z,180
2016-07-08T12:28:53.210Z,180
2016-07-08T12:29:53.239Z,190
2016-07-08T12:30:53.255Z,200
2016-07-08T12:31:53.274Z,205
2016-07-08T12:32:53.302Z,195
2016-07-08T12:33:53.324Z,185
2016-07-08T12:34:53.354Z,185
2016-07-08T12:35:53.385Z,200
2016-07-08T12:36:53.403Z,210
2016-07-08T12:37:53.415Z,220
2016-07-08T12:38:53.452Z,230
2016-07-08T12:39:53.477Z,240
2016-07-08T12:40:53.500Z,250
2016-07-08T12:41:53.516Z,255
2016-07-08T12:42:53.534Z,265
2016-07-08T12:43:53.569Z,280
2016-07-08T12:44:53.595Z,285
2016-07-08T12:45:53.612Z,295
2016-07-08T12:46:53.634Z,290
2016-07-08T12:47:53.669Z,295
2016-07-08T12:48:53.682Z,295
2016-07-08T12:49:53.716Z,285
2016-07-08T12:50:53.734Z,275
2016-07-08T12:51:53.764Z,275
2016-07-08T12:52:53.779Z,265
2016-07-08T12:53:53.800Z,265
2016-07-08T12:54:53.840Z,270
2016-07-08T12:55:53.864Z,275
2016-07-08T12:56:53.878Z,280
2016-07-08T12:57:53.911Z,285
2016-07-08T12:58:53.919Z,315
2016-07-08T12:59:53.958Z,335
2016-07-08T13:00:53.988Z,295
2016-07-08T13:01:54.010Z,300
2016-07-08T13:02:54.018Z,305
2016-07-08T13:03:54.059Z,325
2016-07-08T13:04:54.079Z,335
2016-07-08T13:05:54.104Z,365
2016-07-08T13:06:54.126Z,325
2016-07-08T13:07:54.143Z,315
2016-07-08T13:08:54.179Z,330
2016-07-08T13:09:54.196Z,320
2016-07-08T13:10:54.226Z,325
2016-07-08T13:11:54.257Z,340
2016-07-08T13:12:54.266Z,330
2016-07-08T13:13:54.291Z,325
2016-07-08T13:14:54.330Z,295
2016-07-08T13:15:54.346Z,295
2016-07-08T13:16:54.389Z,325
2016-07-08T13:17:54.396Z,315
2016-07-08T13:18:54.413Z,245
2016-07-08T13:19:54.445Z,245
2016-07-08T13:20:54.472Z,240
2016-07-08T13:21:54.490Z,240
2016-07-08T13:22:54.512Z,235
2016-07-08T13:23:54.539Z,240
2016-07-08T13:24:54.584Z,235
2016-07-08T13:25:54.593Z,240
2016-07-08T13:26:54.621Z,245
2016-07-08T13:27:54.642Z,255
2016-07-08T13:28:54.659Z,265
2016-07-08T13:29:54.696Z,275
2016-07-08T13:30:54.716Z,270
2016-07-08T13:31:54.749Z,265
2016-07-08T13:32:55.007Z,260
2016-07-08T13:33:54.798Z,265
2016-07-08T13:34:54.818Z,280
2016-07-08T13:35:54.849Z,260
2016-07-08T13:36:54.866Z,255
2016-07-08T13:37:54.883Z,260
2016-07-08T13:38:54.919Z,270
2016-07-08T13:39:54.932Z,310
2016-07-08T13:40:54.970Z,365
2016-07-08T13:41:54.976Z,275
2016-07-08T13:42:55.046Z,330
2016-07-08T13:43:55.087Z,275
2016-07-08T13:44:55.079Z,270
2016-07-08T13:45:55.140Z,250
2016-07-08T13:46:55.109Z,220
2016-07-08T13:47:55.144Z,190
2016-07-08T13:48:55.163Z,170
2016-07-08T13:49:55.184Z,150
2016-07-08T13:50:55.235Z,135
2016-07-08T13:51:55.242Z,125
2016-07-08T13:52:55.292Z,120
2016-07-08T13:53:55.334Z,125
2016-07-08T13:54:55.310Z,120
2016-07-08T13:55:55.317Z,115
2016-07-08T13:56:55.349Z,115
2016-07-08T13:57:55.377Z,110
2016-07-08T13:58:55.392Z,105
2016-07-08T13:59:55.427Z,95
2016-07-08T14:00:55.459Z,90
2016-07-08T14:01:55.461Z,90
2016-07-08T14:02:55.502Z,90
2016-07-08T14:03:55.519Z,85
2016-07-08T14:04:55.544Z,80
2016-07-08T14:05:55.569Z,75
2016-07-08T14:06:55.582Z,70